Time;durP1;ratioP1;P1;durP2;ratioP2;P2;SDS_P1;SDS_P2;PMS_P1;PMS_P2;Temp;Humidity;BMP_temperature;BMP_pressure;BME280_temperature;BME280_humidity;BME280_pressure;Samples;Min_cycle;Max_cycle;Signal;HPM_P1;HPM_P2
2022/03/17 00:01:23;;;;;;;26.85;16.88;;;;;;;-146.64;100.00;93893.06;5025420;28;20480;-89
2022/03/17 00:03:49;;;;;;;21.50;16.30;;;;;;;-146.64;100.00;94689.88;5041557;28;20029;-88
2022/03/17 00:06:14;;;;;;;32.42;17.67;;;;;;;-146.64;100.00;94424.25;5025289;28;20321;-88
2022/03/17 00:08:40;;;;;;;28.53;17.60;;;;;;;-146.64;100.00;93893.06;5041338;28;20041;-87
2022/03/17 00:11:06;;;;;;;27.33;17.07;;;;;;;-146.64;100.00;94158.66;5042825;28;20021;-87
2022/03/17 00:13:31;;;;;;;30.00;16.92;;;;;;;-146.64;100.00;94689.88;5025392;28;20426;-88
2022/03/17 00:15:57;;;;;;;30.10;18.90;;;;;;;-146.64;100.00;95221.19;5041503;28;20033;-86
2022/03/17 00:18:23;;;;;;;26.38;16.33;;;;;;;-146.64;100.00;94955.53;5027412;28;20037;-86
2022/03/17 00:20:48;;;;;;;24.48;17.45;;;;;;;-146.64;100.00;94424.25;5042006;28;20108;-86
2022/03/17 00:23:13;;;;;;;31.17;17.97;;;;;;;-146.64;100.00;93627.50;5041205;28;20424;-87
2022/03/17 00:25:38;;;;;;;32.00;16.93;;;;;;;-146.64;100.00;93096.44;5025160;28;20026;-85
2022/03/17 00:28:04;;;;;;;29.73;18.20;;;;;;;-146.64;100.00;92830.91;5041462;28;20052;-85
2022/03/17 00:30:29;;;;;;;31.88;17.35;;;;;;;-146.64;100.00;93361.97;5025512;28;20119;-86
2022/03/17 00:32:55;;;;;;;24.15;17.42;;;;;;;-146.64;100.00;93361.97;5024521;28;20041;-88
2022/03/17 00:35:35;;;;;;;33.40;17.77;;;;;;;-146.64;100.00;93361.97;5024710;28;20045;-88
2022/03/17 00:38:07;;;;;;;33.97;18.85;;;;;;;-146.64;100.00;93893.06;5041681;28;20033;-88
2022/03/17 00:40:32;;;;;;;38.58;18.52;;;;;;;-146.64;100.00;94424.25;5025193;28;20026;-88
2022/03/17 00:42:59;;;;;;;28.93;19.07;;;;;;;-146.64;100.00;93627.50;5007624;28;20341;-88
2022/03/17 00:45:25;;;;;;;34.20;18.45;;;;;;;-146.64;100.00;93627.50;5025041;28;20365;-88
2022/03/17 00:47:50;;;;;;;28.88;19.20;;;;;;;-146.64;100.00;94689.88;5035856;28;20039;-87
2022/03/17 00:50:16;;;;;;;24.83;17.63;;;;;;;-146.64;100.00;94424.25;5024722;28;20048;-88
2022/03/17 00:52:41;;;;;;;31.80;19.50;;;;;;;-146.64;100.00;93893.06;5025337;28;20040;-88
2022/03/17 00:55:07;;;;;;;33.80;18.35;;;;;;;-146.64;100.00;95221.19;5040441;28;20047;-88
2022/03/17 00:57:33;;;;;;;34.95;20.05;;;;;;;-146.64;100.00;95752.53;5025245;28;20106;-87
2022/03/17 00:59:58;;;;;;;31.65;19.25;;;;;;;-146.64;100.00;96018.25;5023401;28;20133;-88
2022/03/17 01:02:24;;;;;;;32.17;18.67;;;;;;;-146.64;100.00;96549.72;5024729;28;20052;-88
2022/03/17 01:04:49;;;;;;;30.30;20.13;;;;;;;-146.64;100.00;97347.03;5041625;28;20025;-88
2022/03/17 01:07:14;;;;;;;37.10;21.53;;;;;;;-146.64;100.00;96815.47;5024981;28;20025;-88
2022/03/17 01:09:39;;;;;;;30.83;20.35;;;;;;;-146.64;100.00;97878.69;5025033;28;20041;-86
2022/03/17 01:12:05;;;;;;;36.63;19.33;;;;;;;-146.64;100.00;97878.69;5024736;28;20097;-86
2022/03/17 01:14:30;;;;;;;37.97;21.27;;;;;;;-146.64;100.00;97878.69;5041048;28;20156;-86
2022/03/17 01:16:56;;;;;;;33.47;19.52;;;;;;;-146.64;100.00;98410.41;5042283;28;20025;-88
2022/03/17 01:19:21;;;;;;;32.23;20.27;;;;;;;-146.64;100.00;99739.97;5041196;28;20100;-87
2022/03/17 01:21:48;;;;;;;47.87;21.63;;;;;;;-146.64;100.00;101336.06;5040979;28;20154;-88
2022/03/17 01:24:14;;;;;;;35.35;21.48;;;;;;;-146.64;100.00;102666.59;5041281;28;20032;-88
2022/03/17 01:26:40;;;;;;;33.83;20.77;;;;;;;-146.64;100.00;103731.34;5024562;28;20057;-88
2022/03/17 01:29:05;;;;;;;31.55;21.30;;;;;;;-146.64;100.00;105062.66;5040497;28;20049;-87
2022/03/17 01:31:31;;;;;;;33.60;21.80;;;;;;;-146.64;100.00;107193.69;5041214;28;20029;-87
2022/03/17 01:33:57;;;;;;;36.40;23.40;;;;;;;-146.64;100.00;108792.72;5024541;28;20446;-86
2022/03/17 01:36:22;;;;;;;48.27;25.40;;;;;;;-146.64;100.00;110125.69;5040781;28;20053;-87
2022/03/17 01:38:48;;;;;;;39.40;24.08;;;;;;;-146.64;100.00;111459.13;5023952;28;20025;-88
2022/03/17 01:41:14;;;;;;;44.88;26.50;;;;;;;-146.64;100.00;112526.16;5023905;28;20025;-88
2022/03/17 01:43:39;;;;;;;39.45;25.55;;;;;;;-146.64;100.00;114127.28;5040314;28;20476;-88
2022/03/17 01:46:05;;;;;;;45.53;28.57;;;;;;;-146.64;100.00;115462.00;5020772;28;20041;-88
2022/03/17 01:48:31;;;;;;;65.37;29.40;;;;;;;-146.64;100.00;116797.16;5030135;28;20527;-87
2022/03/17 01:50:56;;;;;;;47.42;30.65;;;;;;;-146.64;100.00;117598.47;5050025;28;20029;-87
2022/03/17 01:53:22;;;;;;;45.63;28.00;;;;;;;-146.64;100.00;118132.78;5040390;28;20402;-86
2022/03/17 01:55:48;;;;;;;40.67;26.20;;;;;;;-146.64;100.00;118402.03;5023448;28;20025;-87
2022/03/17 01:58:13;;;;;;;32.85;20.05;;;;;;;-146.64;100.00;118402.03;5023550;28;20048;-88
2022/03/17 02:00:40;;;;;;;25.73;16.63;;;;;;;-146.64;100.00;118402.03;5040266;28;20053;-88
2022/03/17 02:03:06;;;;;;;20.58;15.05;;;;;;;-146.64;100.00;118402.03;5039734;28;20029;-88
2022/03/17 02:05:33;;;;;;;18.63;13.77;;;;;;;-146.64;100.00;118402.03;5023483;28;20029;-87
2022/03/17 02:07:58;;;;;;;19.00;14.77;;;;;;;-146.64;100.00;118402.03;5039107;28;20026;-87
2022/03/17 02:10:24;;;;;;;18.77;14.43;;;;;;;-146.64;100.00;118402.03;5040329;28;20051;-87
2022/03/17 02:15:34;;;;;;;22.35;17.75;;;;;;;-146.64;100.00;118402.03;5034706;28;20108;-86
2022/03/17 02:18:02;;;;;;;28.37;18.60;;;;;;;-146.64;100.00;118402.03;5039358;28;20025;-87
2022/03/17 02:20:28;;;;;;;27.92;18.83;;;;;;;-146.64;100.00;118402.03;5023519;28;20118;-87
2022/03/17 02:25:33;;;;;;;28.93;19.93;;;;;;;-146.64;100.00;118402.03;5023468;28;20025;-88
2022/03/17 02:25:47;;;;;;;31.75;20.15;;;;;;;-146.64;100.00;118402.03;5040042;28;20101;-88
2022/03/17 02:28:14;;;;;;;35.22;21.60;;;;;;;-146.64;100.00;118402.03;5003735;28;20068;-88
2022/03/17 02:30:39;;;;;;;40.40;23.15;;;;;;;-146.64;100.00;118402.03;5017186;28;20033;-88
2022/03/17 02:33:06;;;;;;;33.47;23.10;;;;;;;-146.64;100.00;118402.03;5023186;28;20079;-87
2022/03/17 02:35:33;;;;;;;36.60;20.92;;;;;;;-146.64;100.00;118402.03;5020311;28;20105;-87
2022/03/17 02:38:01;;;;;;;29.38;18.02;;;;;;;-146.64;100.00;118402.03;5022732;28;20033;-86
2022/03/17 02:40:27;;;;;;;20.73;14.25;;;;;;;-146.64;100.00;118402.03;5039999;28;20040;-86
2022/03/17 02:42:53;;;;;;;17.52;12.32;;;;;;;-146.64;100.00;118402.03;5022905;28;20052;-88
2022/03/17 02:45:18;;;;;;;16.40;11.80;;;;;;;-146.64;100.00;118402.03;5024552;28;20457;-87
2022/03/17 02:47:44;;;;;;;13.65;10.70;;;;;;;-146.64;100.00;118402.03;5044100;28;20025;-88
2022/03/17 02:50:10;;;;;;;17.67;10.80;;;;;;;-146.64;100.00;118402.03;5026871;28;20078;-88
2022/03/17 02:52:37;;;;;;;21.70;11.80;;;;;;;-146.64;100.00;118402.03;5011346;28;20453;-88
2022/03/17 02:55:02;;;;;;;;;;;;;;;-146.64;100.00;118402.03;5027883;28;20024;-88
2022/03/17 02:57:28;;;;;;;19.50;12.45;;;;;;;-146.64;100.00;118402.03;5043996;28;20344;-88
2022/03/17 02:59:54;;;;;;;19.42;14.02;;;;;;;-146.64;100.00;118402.03;5043674;28;20048;-87
2022/03/17 03:02:21;;;;;;;21.37;13.73;;;;;;;-146.64;100.00;118402.03;5043701;28;20032;-88
2022/03/17 03:04:46;;;;;;;23.52;15.35;;;;;;;-146.64;100.00;118402.03;5024322;28;20052;-88
2022/03/17 03:07:11;;;;;;;23.75;15.38;;;;;;;-146.64;100.00;118402.03;5043221;28;20021;-88
2022/03/17 03:09:37;;;;;;;28.35;17.30;;;;;;;-146.64;100.00;118402.03;5026459;28;20460;-88
2022/03/17 03:12:03;;;;;;;32.30;18.08;;;;;;;-146.64;100.00;118402.03;5043952;28;20041;-87
2022/03/17 03:14:29;;;;;;;32.20;20.45;;;;;;;-146.64;100.00;118402.03;5027295;28;20086;-87
2022/03/17 03:16:54;;;;;;;29.03;18.80;;;;;;;-146.64;100.00;118402.03;5048741;28;20033;-87
2022/03/17 03:19:20;;;;;;;32.13;19.45;;;;;;;-146.64;100.00;118402.03;5026633;28;20021;-86
2022/03/17 03:21:45;;;;;;;32.15;19.27;;;;;;;-146.64;100.00;118402.03;5010193;28;20385;-88
2022/03/17 03:24:11;;;;;;;30.98;18.98;;;;;;;-146.64;100.00;118402.03;5026448;28;20025;-88
2022/03/17 03:26:37;;;;;;;28.92;18.33;;;;;;;-146.64;100.00;118402.03;5026048;28;20028;-88
2022/03/17 03:29:20;;;;;;;32.00;17.33;;;;;;;-146.64;100.00;118402.03;5042433;28;20045;-87
2022/03/17 03:31:46;;;;;;;33.35;18.60;;;;;;;-146.64;100.00;118402.03;5043279;28;20422;-88
2022/03/17 03:34:11;;;;;;;26.15;16.02;;;;;;;-146.64;100.00;118402.03;5042660;28;20025;-88
2022/03/17 03:39:20;;;;;;;29.45;12.52;;;;;;;-146.64;100.00;118399.94;5043757;28;20036;-88
2022/03/17 03:41:45;;;;;;;25.80;12.25;;;;;;;-146.64;100.00;118132.78;5043260;28;20033;-88
2022/03/17 03:44:14;;;;;;;27.80;9.57;;;;;;;-146.64;100.00;117598.47;5043093;28;20048;-87
2022/03/17 03:46:40;;;;;;;25.33;8.07;;;;;;;-146.64;100.00;117064.25;5027186;28;20052;-88
2022/03/17 03:49:06;;;;;;;33.55;8.70;;;;;;;-146.64;100.00;115996.03;5006631;28;20040;-86
2022/03/17 03:51:31;;;;;;;27.73;6.13;;;;;;;-146.64;100.00;114928.06;5020760;28;20029;-86
2022/03/17 03:56:43;;;;;;;17.73;4.65;;;;;;;-146.64;100.00;111725.84;5043632;28;20070;-87
2022/03/17 03:59:20;;;;;;;23.67;4.57;;;;;;;-146.64;100.00;110392.34;5027423;28;20116;-87
2022/03/17 04:01:46;;;;;;;17.70;3.33;;;;;;;-146.64;100.00;109059.28;5027759;28;20453;-87
2022/03/17 04:04:20;;;;;;;22.80;4.32;;;;;;;-146.64;100.00;108526.16;5025691;28;20277;-85
2022/03/17 04:06:47;;;;;;;14.55;3.15;;;;;;;-146.64;100.00;106128.03;5027193;28;20021;-87
2022/03/17 04:09:13;;;;;;;14.43;3.75;;;;;;;-146.64;100.00;106128.03;5025403;28;20056;-85
2022/03/17 04:11:41;;;;;;;15.95;2.72;;;;;;;-146.64;100.00;105062.66;5044128;28;20021;-86
2022/03/17 04:14:07;;;;;;;15.85;3.42;;;;;;;-146.64;100.00;105595.31;5042528;28;20025;-86
2022/03/17 04:16:32;;;;;;;34.40;4.80;;;;;;;-146.64;100.00;105329.00;5026130;28;20029;-87
2022/03/17 04:18:58;;;;;;;18.48;3.17;;;;;;;-146.64;100.00;104796.38;5025606;28;20032;-88
2022/03/17 04:21:23;;;;;;;24.65;3.30;;;;;;;-146.64;100.00;105595.31;5025616;28;20371;-87
2022/03/17 04:23:49;;;;;;;19.88;3.75;;;;;;;-146.64;100.00;106394.44;5042524;28;20033;-87
2022/03/17 04:26:14;;;;;;;15.88;3.08;;;;;;;-146.64;100.00;105861.69;5041889;28;20041;-87
2022/03/17 04:28:39;;;;;;;22.20;2.83;;;;;;;-146.64;100.00;105861.69;5041791;28;20050;-87
2022/03/17 04:31:06;;;;;;;23.20;3.65;;;;;;;-146.64;100.00;105861.69;5024994;28;20029;-87
2022/03/17 04:33:31;;;;;;;20.02;2.92;;;;;;;-146.64;100.00;105861.69;5042011;28;20026;-86
2022/03/17 04:35:56;;;;;;;13.45;3.50;;;;;;;-146.64;100.00;106128.03;5025169;28;20049;-88
2022/03/17 04:38:25;;;;;;;19.17;2.65;;;;;;;-146.64;100.00;105062.66;5041777;28;20100;-87
2022/03/17 04:40:52;;;;;;;21.85;3.55;;;;;;;-146.64;100.00;103465.13;5042615;28;20097;-88
2022/03/17 04:43:17;;;;;;;12.88;3.25;;;;;;;-146.64;100.00;103997.56;5042038;28;20365;-87
2022/03/17 04:45:44;;;;;;;14.65;2.85;;;;;;;-146.64;100.00;102134.31;5042349;28;20030;-86
2022/03/17 04:48:09;;;;;;;12.27;2.97;;;;;;;-146.64;100.00;101868.22;5042956;28;20025;-87
2022/03/17 04:50:35;;;;;;;28.13;4.93;;;;;;;-146.64;100.00;102666.59;5021551;28;20037;-88
2022/03/17 04:55:44;;;;;;;15.65;2.25;;;;;;;-146.64;100.00;104796.38;5054581;28;20064;-88
2022/03/17 04:58:09;;;;;;;15.18;2.45;;;;;;;-146.64;100.00;105595.31;5041696;28;20029;-87
2022/03/17 05:00:35;;;;;;;15.35;2.45;;;;;;;-146.64;100.00;105062.66;5041119;28;20026;-86
2022/03/17 05:03:00;;;;;;;14.10;2.53;;;;;;;-146.64;100.00;104796.38;5041907;28;20045;-87
2022/03/17 05:05:25;;;;;;;13.63;2.60;;;;;;;-146.64;100.00;105062.66;5041250;28;20192;-87
2022/03/17 05:07:56;;;;;;;16.63;2.85;;;;;;;-146.64;100.00;104263.81;5024517;28;20096;-88
2022/03/17 05:10:21;;;;;;;18.20;2.45;;;;;;;-146.64;100.00;103997.56;5042542;28;20052;-87
2022/03/17 05:12:47;;;;;;;17.25;3.03;;;;;;;-146.64;100.00;102932.75;5040188;28;20177;-87
2022/03/17 05:15:12;;;;;;;13.23;2.55;;;;;;;-146.64;100.00;102932.75;5063084;28;20030;-87
2022/03/17 05:17:39;;;;;;;13.32;1.95;;;;;;;-146.64;100.00;102134.31;5031961;28;20025;-86
2022/03/17 05:20:05;;;;;;;12.43;2.33;;;;;;;-146.64;100.00;101868.22;5024474;28;20040;-87
2022/03/17 05:22:30;;;;;;;13.35;2.60;;;;;;;-146.64;100.00;102666.59;5042373;28;20013;-88
2022/03/17 05:24:56;;;;;;;14.13;3.20;;;;;;;-146.64;100.00;102666.59;5044024;28;20025;-88
2022/03/17 05:27:21;;;;;;;9.88;2.65;;;;;;;-146.64;100.00;102400.44;5032652;28;20100;-87
2022/03/17 05:29:47;;;;;;;9.82;2.30;;;;;;;-146.64;100.00;101868.22;5039632;28;20053;-88
2022/03/17 05:32:12;;;;;;;16.63;2.58;;;;;;;-146.64;100.00;101336.06;5024301;28;20094;-87
2022/03/17 05:34:37;;;;;;;13.02;2.75;;;;;;;-146.64;100.00;99739.97;5040484;28;20022;-88
2022/03/17 05:37:03;;;;;;;9.50;2.03;;;;;;;-146.64;100.00;98144.53;5024182;28;20033;-87
2022/03/17 05:39:28;;;;;;;12.93;3.03;;;;;;;-146.64;100.00;96815.47;5023268;28;20045;-87
2022/03/17 05:41:54;;;;;;;19.58;2.10;;;;;;;-146.64;100.00;97612.84;5040502;28;20444;-86
2022/03/17 05:44:19;;;;;;;20.52;1.90;;;;;;;-146.64;100.00;97612.84;5040682;28;20033;-86
2022/03/17 05:46:44;;;;;;;9.48;1.80;;;;;;;-146.64;100.00;98676.28;5023950;28;20021;-88
2022/03/17 05:49:10;;;;;;;11.93;3.30;;;;;;;-146.64;100.00;100005.94;5038448;28;20373;-88
2022/03/17 05:51:35;;;;;;;29.38;3.08;;;;;;;-146.64;100.00;100005.94;5018796;28;20029;-87
2022/03/17 05:54:00;;;;;;;10.82;2.08;;;;;;;-146.64;100.00;96815.47;5017904;28;20025;-88
2022/03/17 05:56:25;;;;;;;7.83;2.20;;;;;;;-146.64;100.00;96549.72;5036114;28;20038;-87
2022/03/17 05:58:51;;;;;;;13.30;3.08;;;;;;;-146.64;100.00;96549.72;5060204;28;20037;-88
2022/03/17 06:01:16;;;;;;;10.00;2.08;;;;;;;-146.64;100.00;97081.25;5019892;28;20068;-87
2022/03/17 06:03:42;;;;;;;13.20;2.22;;;;;;;-146.64;100.00;97878.69;5020558;28;20135;-87
2022/03/17 06:06:07;;;;;;;12.40;2.58;;;;;;;-146.64;100.00;97878.69;5016631;28;20018;-87
2022/03/17 06:08:32;;;;;;;16.92;2.35;;;;;;;-146.64;100.00;99208.09;5015995;28;20041;-88
2022/03/17 06:10:58;;;;;;;13.20;2.30;;;;;;;-146.64;100.00;100803.97;5017135;28;20026;-88
2022/03/17 06:13:23;;;;;;;22.67;3.08;;;;;;;-146.64;100.00;100005.94;5016622;28;20029;-88
2022/03/17 06:15:48;;;;;;;18.05;2.33;;;;;;;-146.64;100.00;100271.94;5031761;28;20092;-87
2022/03/17 06:18:13;;;;;;;18.45;3.30;;;;;;;-146.64;100.00;97878.69;5020188;28;20053;-87
2022/03/17 06:20:39;;;;;;;10.68;2.42;;;;;;;-146.64;100.00;96283.97;5036481;28;20063;-88
2022/03/17 06:23:06;;;;;;;13.32;2.38;;;;;;;-146.64;100.00;94158.66;5020446;28;20029;-87
2022/03/17 06:25:34;;;;;;;23.65;3.25;;;;;;;-146.64;100.00;91769.03;5035992;28;20024;-88
2022/03/17 06:27:59;;;;;;;14.82;2.33;;;;;;;-146.64;100.00;89380.81;5034915;28;20041;-88
2022/03/17 06:30:27;;;;;;;12.57;2.00;;;;;;;-146.64;100.00;87789.44;5018865;28;20387;-88
2022/03/17 06:32:54;;;;;;;25.70;3.35;;;;;;;-146.64;100.00;89115.53;5036362;28;20056;-88
2022/03/17 06:35:21;;;;;;;9.90;1.90;;;;;;;-146.64;100.00;88054.63;5019824;28;20049;-88
2022/03/17 06:37:49;;;;;;;13.88;2.28;;;;;;;-146.64;100.00;90442.06;5035867;28;20025;-87
2022/03/17 06:40:15;;;;;;;21.33;2.67;;;;;;;-146.64;100.00;89646.09;5036077;28;20025;-87
2022/03/17 06:42:41;;;;;;;13.73;2.25;;;;;;;-146.64;100.00;89115.53;5019679;28;20487;-85
2022/03/17 06:45:07;;;;;;;19.37;2.73;;;;;;;-146.64;100.00;87524.28;5037425;28;20388;-86
2022/03/17 06:47:33;;;;;;;21.23;3.10;;;;;;;-146.64;100.00;89646.09;5019873;28;20025;-87
2022/03/17 06:49:58;;;;;;;10.88;2.45;;;;;;;-146.64;100.00;89646.09;5035929;28;20033;-87
2022/03/17 06:52:24;;;;;;;15.70;2.38;;;;;;;-146.64;100.00;90176.72;5019093;28;20207;-87
2022/03/17 06:54:50;;;;;;;19.45;3.22;;;;;;;-146.64;100.00;89911.41;5019958;28;20040;-87
2022/03/17 06:57:17;;;;;;;17.67;3.17;;;;;;;-146.64;100.00;91238.19;5035906;28;20104;-87
2022/03/17 06:59:42;;;;;;;20.67;2.70;;;;;;;-146.64;100.00;91503.59;5035749;28;20384;-88
2022/03/17 07:02:07;;;;;;;14.93;2.22;;;;;;;-146.64;100.00;93627.50;5036106;28;20061;-88
2022/03/17 07:04:33;;;;;;;19.63;3.03;;;;;;;-146.64;100.00;95221.19;5017814;28;20033;-88
2022/03/17 07:06:59;;;;;;;17.75;2.78;;;;;;;-146.64;100.00;96815.47;5036723;28;20022;-87
2022/03/17 07:09:24;;;;;;;16.63;2.45;;;;;;;-146.64;100.00;98410.41;5034723;28;20040;-88
2022/03/17 07:11:50;;;;;;;20.98;2.70;;;;;;;-146.64;100.00;99474.03;5034276;28;20029;-87
2022/03/17 07:14:15;;;;;;;14.45;2.40;;;;;;;-146.64;100.00;99474.03;5018387;28;20048;-87
2022/03/17 07:16:40;;;;;;;18.45;3.63;;;;;;;-146.64;100.00;99474.03;5038473;28;20122;-87
2022/03/17 07:19:07;;;;;;;21.67;3.10;;;;;;;-146.64;100.00;98410.41;5026753;28;20028;-86
2022/03/17 07:21:32;;;;;;;21.15;3.35;;;;;;;-146.64;100.00;96018.25;5035535;28;20033;-86
2022/03/17 07:23:57;;;;;;;14.50;3.03;;;;;;;-146.64;100.00;95221.19;5034628;28;20105;-86
2022/03/17 07:26:23;;;;;;;12.77;2.42;;;;;;;-146.64;100.00;92299.94;5014811;28;20052;-87
2022/03/17 07:28:48;;;;;;;14.68;3.05;;;;;;;-146.64;100.00;87524.28;5014725;28;20397;-87
2022/03/17 07:31:13;;;;;;;8.73;2.28;;;;;;;-146.64;100.00;83548.88;5032914;28;20037;-87
2022/03/17 07:33:39;;;;;;;19.58;3.55;;;;;;;-146.64;100.00;82754.28;5018548;28;20022;-88
2022/03/17 07:36:05;;;;;;;16.05;2.10;;;;;;;-146.64;100.00;81430.28;5022065;28;20017;-87
2022/03/17 07:38:30;;;;;;;19.55;2.67;;;;;;;-146.64;100.00;81695.03;5022370;28;20052;-88
2022/03/17 07:40:55;;;;;;;12.55;2.72;;;;;;;-146.64;100.00;72174.50;5021625;28;20120;-87
2022/03/17 07:43:23;;;;;;;20.67;3.10;;;;;;;-146.64;100.00;72174.50;5038794;28;20071;-88
2022/03/17 07:45:49;;;;;;;20.05;3.60;;;;;;;-146.64;100.00;69269.97;5021162;28;20036;-88
2022/03/17 07:48:14;;;;;;;21.33;3.00;;;;;;;-146.64;100.00;68478.19;5055361;28;20029;-86
2022/03/17 07:50:39;;;;;;;12.50;2.13;;;;;;;-146.64;100.00;57936.13;5043420;28;20412;-87
2022/03/17 07:53:05;;;;;;;13.70;1.90;;;;;;;-146.64;100.00;48866.03;5037379;28;20362;-88
2022/03/17 07:55:30;;;;;;;10.00;2.42;;;;;;;-146.64;100.00;53603.88;5021826;28;20021;-86
2022/03/17 07:57:56;;;;;;;16.98;2.63;;;;;;;-146.64;100.00;48931.69;5038160;28;20021;-86
2022/03/17 08:00:21;;;;;;;17.88;3.67;;;;;;;-146.64;100.00;46095.34;5037183;28;20388;-87
2022/03/17 08:02:46;;;;;;;12.70;2.15;;;;;;;-146.64;100.00;46376.22;5037450;28;20029;-88
2022/03/17 08:05:13;;;;;;;12.25;1.90;;;;;;;-146.64;100.00;43564.25;5037439;28;20021;-88
2022/03/17 08:07:39;;;;;;;10.52;1.67;;;;;;;-146.64;100.00;44580.59;5021127;28;20376;-88
2022/03/17 08:10:04;;;;;;;12.55;2.08;;;;;;;-146.64;100.00;42185.66;5021219;28;20032;-88
2022/03/17 08:12:30;;;;;;;14.55;2.47;;;;;;;-146.64;100.00;44215.84;5045018;28;20812;-88
2022/03/17 08:14:56;;;;;;;9.23;1.98;;;;;;;-146.64;100.00;46778.09;5020258;28;20052;-88
2022/03/17 08:17:21;;;;;;;15.63;2.38;;;;;;;-146.64;100.00;47393.28;5046126;28;20407;-86
2022/03/17 08:19:47;;;;;;;17.57;2.13;;;;;;;-146.64;100.00;43197.53;5040327;28;20025;-87
2022/03/17 08:22:12;;;;;;;16.65;2.55;;;;;;;-146.64;100.00;43541.72;5041320;28;20082;-88
2022/03/17 08:24:37;;;;;;;12.98;2.00;;;;;;;-146.64;100.00;45988.75;5050589;28;20033;-87
2022/03/17 08:27:04;;;;;;;14.30;2.20;;;;;;;-146.64;100.00;47245.63;5015001;28;20029;-89
2022/03/17 08:29:30;;;;;;;24.63;2.80;;;;;;;-146.64;100.00;50409.13;5040443;28;20036;-87
2022/03/17 08:31:55;;;;;;;15.07;2.58;;;;;;;-146.64;100.00;58725.81;5021530;28;20052;-89
2022/03/17 08:34:21;;;;;;;16.92;2.42;;;;;;;-146.64;100.00;51102.88;5038885;28;20029;-88
2022/03/17 08:36:46;;;;;;;14.82;2.40;;;;;;;-146.64;100.00;48410.63;5046899;28;20477;-88
2022/03/17 08:39:12;;;;;;;14.05;1.90;;;;;;;-146.64;100.00;51057.72;5037508;28;20032;-88
2022/03/17 08:41:38;;;;;;;15.18;1.85;;;;;;;-146.64;100.00;44416.66;5038384;28;20033;-88
2022/03/17 08:44:03;;;;;;;10.75;1.73;;;;;;;-146.64;100.00;43953.56;5040008;28;20029;-89
2022/03/17 08:49:18;;;;;;;11.30;2.00;;;;;;;-146.64;100.00;41876.41;5040749;28;20033;-88
2022/03/17 08:51:44;;;;;;;10.05;1.65;;;;;;;-146.64;100.00;44084.69;5023994;28;20044;-88
2022/03/17 08:54:10;;;;;;;8.43;1.50;;;;;;;-146.64;100.00;44002.72;5057156;28;20486;-87
2022/03/17 08:56:36;;;;;;;16.40;2.72;;;;;;;-146.64;100.00;43445.44;5041568;28;20279;-88
2022/03/17 08:59:03;;;;;;;19.63;1.98;;;;;;;-146.64;100.00;41489.38;5032163;28;20033;-89
2022/03/17 09:01:28;;;;;;;13.10;2.45;;;;;;;-146.64;100.00;41303.03;5028639;28;20124;-87
2022/03/17 09:03:54;;;;;;;15.45;2.13;;;;;;;-146.64;100.00;41655.22;5026506;28;20158;-88
2022/03/17 09:06:19;;;;;;;14.07;3.65;;;;;;;-146.64;100.00;41999.28;5052376;28;20049;-88
2022/03/17 09:08:44;;;;;;;14.15;2.15;;;;;;;-146.64;100.00;41653.19;5039488;28;20139;-88
2022/03/17 09:11:13;;;;;;;12.20;2.72;;;;;;;-146.64;100.00;41696.19;5020154;28;20052;-88
2022/03/17 09:13:39;;;;;;;13.10;3.05;;;;;;;-146.64;100.00;41274.34;5020782;28;20029;-88
2022/03/17 09:16:06;;;;;;;20.70;2.40;;;;;;;-146.64;100.00;40647.84;5026247;28;20029;-89
2022/03/17 09:18:31;;;;;;;14.75;2.15;;;;;;;-146.64;100.00;40291.63;5057592;28;20028;-88
2022/03/17 09:20:59;;;;;;;15.65;2.20;;;;;;;-146.64;100.00;40084.88;5057195;28;20029;-89
2022/03/17 09:23:24;;;;;;;6.95;1.67;;;;;;;-146.64;100.00;39972.28;5057663;28;20025;-89
2022/03/17 09:25:50;;;;;;;8.98;2.58;;;;;;;-146.64;100.00;39816.72;5057526;28;20017;-89
2022/03/17 09:28:15;;;;;;;11.23;2.72;;;;;;;-146.64;100.00;39695.97;5041397;28;20037;-88
2022/03/17 09:30:40;;;;;;;7.75;1.85;;;;;;;-146.64;100.00;39652.97;5057585;28;20396;-89
2022/03/17 09:33:06;;;;;;;15.75;2.53;;;;;;;-146.64;100.00;39524.03;5040616;28;20060;-89
2022/03/17 09:35:34;;;;;;;10.20;2.80;;;;;;;-146.64;100.00;39579.28;5052962;28;20124;-89
2022/03/17 09:38:00;;;;;;;10.30;2.05;;;;;;;-146.64;100.00;39528.13;5021296;28;20025;-88
2022/03/17 09:40:25;;;;;;;14.27;2.43;;;;;;;-146.64;100.00;39386.91;5037490;28;20442;-89
2022/03/17 09:43:18;;;;;;;9.87;2.23;;;;;;;-146.64;100.00;39440.13;5020035;28;20141;-89
2022/03/17 09:45:39;;;;;;;11.60;2.42;;;;;;;-146.64;100.00;39403.28;5029493;28;20335;-88
2022/03/17 09:48:04;;;;;;;14.80;2.47;;;;;;;-146.64;100.00;39460.59;5035884;28;20030;-87
2022/03/17 09:50:29;;;;;;;10.97;2.37;;;;;;;-146.64;100.00;39395.09;5009126;28;20492;-89
2022/03/17 09:52:55;;;;;;;11.53;2.23;;;;;;;-146.64;100.00;39321.41;5002078;28;20033;-88
2022/03/17 09:55:22;;;;;;;10.05;2.15;;;;;;;-146.64;100.00;39305.03;5036127;28;20423;-87
2022/03/17 09:57:47;;;;;;;11.50;2.40;;;;;;;-146.64;100.00;39284.56;5036480;28;20257;-88
2022/03/17 10:00:15;;;;;;;16.73;2.70;;;;;;;-146.64;100.00;39268.19;5020049;28;20040;-89
2022/03/17 10:02:40;;;;;;;8.70;2.42;;;;;;;-146.64;100.00;39178.16;5020467;28;20040;-89
2022/03/17 10:05:08;;;;;;;7.00;2.10;;;;;;;-146.64;100.00;39309.13;5036601;28;20025;-87
2022/03/17 10:07:35;;;;;;;9.73;2.10;;;;;;;-146.64;100.00;39280.47;5021117;28;20025;-87
2022/03/17 10:10:01;;;;;;;8.35;3.72;;;;;;;-146.64;100.00;39317.31;5020078;28;20020;-89
2022/03/17 10:12:30;;;;;;;19.27;2.67;;;;;;;-146.64;100.00;39241.59;5036288;28;20043;-88
2022/03/17 10:14:55;;;;;;;15.82;2.75;;;;;;;-146.64;100.00;39239.56;5021031;28;20093;-90
2022/03/17 10:17:31;;;;;;;10.27;2.33;;;;;;;-146.64;100.00;39178.16;5046642;28;20044;-89
2022/03/17 10:20:22;;;;;;;8.10;2.60;;;;;;;-146.64;100.00;39131.09;5042062;28;20022;-89
2022/03/17 10:22:48;;;;;;;13.75;2.60;;;;;;;-146.64;100.00;39200.66;5021073;28;20040;-89
2022/03/17 10:25:24;;;;;;;15.53;3.47;;;;;;;-146.64;100.00;39092.19;5038033;28;20508;-88
2022/03/17 10:27:53;;;;;;;8.63;2.03;;;;;;;-146.64;100.00;39047.19;5035899;28;20044;-89
2022/03/17 10:30:23;;;;;;;25.55;2.95;;;;;;;-146.64;100.00;39071.75;5018088;28;20041;-89
2022/03/17 10:33:18;;;;;;;13.20;2.25;;;;;;;-146.64;100.00;39116.75;5013939;28;20037;-89
2022/03/17 10:35:48;;;;;;;13.20;2.78;;;;;;;-146.64;100.00;39165.88;5034852;28;20029;-89
2022/03/17 10:38:27;;;;;;;13.18;2.55;;;;;;;-146.64;100.00;39016.47;5027076;28;20112;-89
2022/03/17 10:41:03;;;;;;;9.10;2.03;;;;;;;-146.64;100.00;39067.66;5028543;28;20111;-88
2022/03/17 10:43:29;;;;;;;9.63;2.35;;;;;;;-146.64;100.00;39088.09;5018288;28;20426;-89
2022/03/17 10:46:04;;;;;;;5.53;2.00;;;;;;;-146.64;100.00;38971.47;5022003;28;20057;-90
2022/03/17 10:48:30;;;;;;;7.45;2.25;;;;;;;-146.64;90.69;38996.03;5037668;28;20021;-89
2022/03/17 10:50:55;;;;;;;5.50;1.80;;;;;;;-146.64;91.61;38985.78;5019560;28;20036;-89
2022/03/17 10:53:27;;;;;;;7.05;2.28;;;;;;;-146.64;96.56;39022.63;5019367;28;20053;-88
2022/03/17 10:55:52;;;;;;;7.45;2.55;;;;;;;-146.64;94.54;38985.78;5064147;28;20469;-89
2022/03/17 10:58:19;;;;;;;5.90;2.10;;;;;;;-146.64;99.84;39071.75;5034411;28;20021;-88
2022/03/17 11:00:50;;;;;;;13.07;2.92;;;;;;;-146.64;95.59;38946.91;5018225;28;20038;-88
2022/03/17 11:03:16;;;;;;;7.78;2.53;;;;;;;-146.64;92.21;38879.38;5017244;28;20033;-89
2022/03/17 11:05:41;;;;;;;10.77;2.30;;;;;;;-146.64;88.71;38863.00;5023734;28;20104;-89
2022/03/17 11:08:09;;;;;;;6.03;1.83;;;;;;;-146.64;89.11;38942.81;5039399;28;20305;-89